Time;durP1;ratioP1;P1;durP2;ratioP2;P2;SDS_P1;SDS_P2;PMS_P1;PMS_P2;Temp;Humidity;BMP_temperature;BMP_pressure;BME280_temperature;BME280_humidity;BME280_pressure;Samples;Min_cycle;Max_cycle;Signal;HPM_P1;HPM_P2
2021/07/01 00:01:13;;;;;;;;;6.50;6.50;;;;;25.63;42.84;101675.66;5062932;28;45165;-69
2021/07/01 00:03:39;;;;;;;;;8.00;8.00;;;;;25.71;42.80;101692.59;5062589;28;46534;-69
2021/07/01 00:06:05;;;;;;;;;5.25;5.25;;;;;25.93;42.97;101730.00;5077904;28;45503;-68
2021/07/01 00:08:30;;;;;;;;;6.00;6.00;;;;;25.62;42.76;101682.00;5062853;28;45291;-69
2021/07/01 00:10:56;;;;;;;;;5.50;5.00;;;;;25.70;42.96;101685.59;5065821;28;45380;-69
2021/07/01 00:13:22;;;;;;;;;8.00;8.00;;;;;25.59;43.06;101670.88;5081385;28;47155;-69
2021/07/01 00:15:48;;;;;;;;;7.00;6.25;;;;;25.80;42.51;101707.50;5082888;28;45445;-69
2021/07/01 00:18:14;;;;;;;;;7.50;7.50;;;;;25.86;42.67;101716.59;5082636;28;45473;-69
2021/07/01 00:20:39;;;;;;;;;6.00;6.00;;;;;25.85;42.60;101704.25;5067680;28;45419;-69
2021/07/01 00:23:05;;;;;;;;;6.25;5.00;;;;;25.93;43.10;101722.81;5062510;28;45663;-69
2021/07/01 00:25:30;;;;;;;;;7.00;7.00;;;;;25.83;42.77;101706.28;5061153;28;45240;-69
2021/07/01 00:27:56;;;;;;;;;8.25;6.50;;;;;25.86;43.21;101703.25;5062860;28;45257;-69
2021/07/01 00:30:22;;;;;;;;;7.00;7.00;;;;;25.61;42.82;101664.38;5060932;28;45545;-69
2021/07/01 00:32:49;;;;;;;;;5.00;5.00;;;;;25.87;42.63;101704.09;5060592;28;47051;-69
2021/07/01 00:35:15;;;;;;;;;6.25;6.25;;;;;25.85;43.03;101697.09;5060835;28;45360;-69
2021/07/01 00:37:41;;;;;;;;;6.25;6.25;;;;;25.88;43.05;101695.91;5063581;28;45236;-69
2021/07/01 00:40:09;;;;;;;;;8.75;7.00;;;;;25.81;42.81;101687.00;5060900;28;45681;-69
2021/07/01 00:42:35;;;;;;;;;5.25;5.25;;;;;25.66;43.18;101669.13;5062082;28;45567;-69
2021/07/01 00:45:00;;;;;;;;;5.00;5.00;;;;;25.73;42.86;101675.44;5059955;28;45461;-69
2021/07/01 00:47:26;;;;;;;;;6.25;6.25;;;;;25.86;43.08;101703.25;5062155;28;45299;-69
2021/07/01 00:49:53;;;;;;;;;6.00;5.00;;;;;25.68;43.10;101666.31;5062070;28;45482;-69
2021/07/01 00:52:19;;;;;;;;;6.00;4.75;;;;;25.84;42.76;101697.28;5062097;28;45591;-69
2021/07/01 00:54:45;;;;;;;;;7.25;7.00;;;;;25.94;42.81;101718.31;5061413;28;45241;-69
2021/07/01 00:57:11;;;;;;;;;9.50;7.25;;;;;25.93;42.55;101712.16;5060917;28;45308;-69
2021/07/01 00:59:39;;;;;;;;;7.00;7.00;;;;;25.84;42.76;101705.28;5061725;28;45240;-69
2021/07/01 01:02:06;;;;;;;;;7.00;7.00;;;;;25.90;43.23;101709.03;5060207;28;47181;-69
2021/07/01 01:04:33;;;;;;;;;6.75;6.50;;;;;25.70;42.88;101683.75;5061710;28;45165;-69
2021/07/01 01:06:58;;;;;;;;;6.75;6.75;;;;;25.59;42.76;101662.91;5061949;28;45239;-69
2021/07/01 01:09:24;;;;;;;;;7.50;7.50;;;;;25.62;43.31;101665.19;5060031;28;45255;-69
2021/07/01 01:11:49;;;;;;;;;8.50;6.00;;;;;25.92;42.61;101718.50;5073734;28;45419;-69
2021/07/01 01:14:15;;;;;;;;;6.75;6.25;;;;;25.81;43.14;101689.66;5081801;28;45426;-69
2021/07/01 01:16:40;;;;;;;;;6.25;5.75;;;;;25.52;42.57;101650.31;5080720;28;45222;-69
2021/07/01 01:19:07;;;;;;;;;7.00;6.00;;;;;25.79;43.07;101692.50;5081865;28;45255;-69
2021/07/01 01:21:32;;;;;;;;;6.00;6.00;;;;;25.70;42.86;101680.25;5081900;28;46314;-68
2021/07/01 01:24:00;;;;;;;;;9.25;7.25;;;;;25.50;43.03;101647.00;5081405;28;45436;-68
2021/07/01 01:26:26;;;;;;;;;6.75;6.75;;;;;25.91;42.91;101710.69;5082247;27;45469;-68
2021/07/01 01:28:52;;;;;;;;;6.75;6.75;;;;;25.79;42.63;101686.38;5081615;28;45193;-69
2021/07/01 01:31:19;;;;;;;;;6.00;6.00;;;;;25.45;42.59;101633.41;5081429;28;45437;-69
2021/07/01 01:33:44;;;;;;;;;8.00;7.00;;;;;25.61;43.02;101664.38;5081474;28;45182;-69
2021/07/01 01:36:10;;;;;;;;;5.25;5.00;;;;;25.89;42.91;101699.41;5081993;28;45272;-69
2021/07/01 01:38:37;;;;;;;;;5.00;5.00;;;;;25.60;42.87;101652.06;5078582;28;45239;-69
2021/07/01 01:41:03;;;;;;;;;6.75;6.25;;;;;25.78;43.12;101680.19;5081584;28;45529;-69
2021/07/01 01:43:28;;;;;;;;;6.50;6.25;;;;;25.92;42.65;101705.16;5081340;28;45511;-69
2021/07/01 01:45:54;;;;;;;;;7.00;7.00;;;;;25.89;43.06;101700.22;5081646;28;45248;-69
2021/07/01 01:48:21;;;;;;;;;6.75;6.75;;;;;25.91;42.90;101698.19;5081240;28;45309;-69
2021/07/01 01:50:46;;;;;;;;;6.00;6.00;;;;;25.60;42.81;101648.56;5097203;27;47817;-69
2021/07/01 01:53:12;;;;;;;;;6.00;6.00;;;;;25.91;42.66;101706.19;5073596;28;45351;-69
2021/07/01 01:55:39;;;;;;;;;6.75;6.75;;;;;25.85;42.95;101698.94;5060100;28;45275;-69
2021/07/01 01:58:05;;;;;;;;;6.75;6.75;;;;;25.64;42.82;101652.50;5075261;27;45515;-69
2021/07/01 02:00:32;;;;;;;;;5.00;5.00;;;;;25.64;42.75;101655.16;5060734;28;45728;-69
2021/07/01 02:02:59;;;;;;;;;7.75;7.75;;;;;25.85;42.78;101696.25;5059288;28;45367;-69
2021/07/01 02:05:25;;;;;;;;;8.00;6.50;;;;;25.65;42.80;101661.34;5059390;28;45369;-69
2021/07/01 02:07:51;;;;;;;;;5.50;5.50;;;;;25.92;42.63;101709.66;5060470;28;45391;-69
2021/07/01 02:10:25;;;;;;;;;5.75;5.75;;;;;25.81;42.56;101689.66;5060759;28;46183;-69
2021/07/01 02:12:52;;;;;;;;;8.00;6.50;;;;;25.83;42.87;101698.28;5066621;28;45593;-69
2021/07/01 02:15:23;;;;;;;;;6.25;5.75;;;;;25.78;42.79;101688.19;5079601;28;45366;-69
2021/07/01 02:17:49;;;;;;;;;6.00;6.00;;;;;25.70;42.66;101666.94;5079471;28;45444;-69
2021/07/01 02:20:17;;;;;;;;;7.00;6.00;;;;;25.82;42.61;101697.47;5080704;28;45549;-69
2021/07/01 02:22:44;;;;;;;;;6.75;6.75;;;;;25.84;42.73;101697.28;5096478;27;45891;-69
2021/07/01 02:25:10;;;;;;;;;7.00;7.00;;;;;25.53;43.06;101640.47;5080845;27;45283;-69
2021/07/01 02:27:37;;;;;;;;;6.00;5.75;;;;;25.86;43.02;101700.59;5079534;28;45515;-69
2021/07/01 02:30:07;;;;;;;;;10.00;8.50;;;;;25.68;42.66;101671.63;5095934;27;46309;-69
2021/07/01 02:32:33;;;;;;;;;6.25;6.25;;;;;25.82;42.88;101700.13;5080666;27;45311;-69
2021/07/01 02:34:58;;;;;;;;;7.25;7.25;;;;;25.84;42.82;101694.63;5080271;28;45280;-69
2021/07/01 02:37:25;;;;;;;;;7.00;7.00;;;;;25.63;43.00;101656.19;5072333;28;45343;-69
2021/07/01 02:39:50;;;;;;;;;6.00;6.00;;;;;25.79;42.86;101684.50;5060335;28;45256;-69
2021/07/01 02:42:16;;;;;;;;;6.50;6.50;;;;;25.76;42.98;101674.22;5058997;28;45336;-69
2021/07/01 02:44:42;;;;;;;;;8.00;6.75;;;;;25.82;42.86;101684.13;5060510;28;45544;-69
2021/07/01 02:47:08;;;;;;;;;5.25;5.00;;;;;25.58;42.72;101639.94;5058807;28;45511;-69
2021/07/01 02:49:34;;;;;;;;;6.75;6.75;;;;;25.61;42.75;101644.88;5058744;28;46888;-69
2021/07/01 02:51:59;;;;;;;;;7.75;7.75;;;;;25.44;43.33;101620.28;5060418;28;45385;-69
2021/07/01 02:54:25;;;;;;;;;6.00;6.00;;;;;25.87;42.79;101686.22;5060170;28;45291;-69
2021/07/01 02:56:50;;;;;;;;;6.00;6.00;;;;;25.88;42.93;101685.22;5060952;28;45513;-69
2021/07/01 02:59:18;;;;;;;;;5.25;5.25;;;;;25.68;42.46;101647.66;5063236;28;46604;-69
2021/07/01 03:01:44;;;;;;;;;6.00;5.00;;;;;25.81;42.87;101665.66;5059656;28;45488;-69
2021/07/01 03:04:10;;;;;;;;;4.50;4.25;;;;;25.82;42.91;101667.31;5059449;28;45203;-69
2021/07/01 03:06:37;;;;;;;;;8.50;7.00;;;;;25.62;42.84;101633.22;5057984;28;45356;-69
2021/07/01 03:09:04;;;;;;;;;8.00;8.00;;;;;25.87;42.74;101670.25;5059081;28;45584;-69
2021/07/01 03:11:29;;;;;;;;;7.25;6.75;;;;;25.54;42.60;101623.50;5074956;27;45501;-69
2021/07/01 03:13:55;;;;;;;;;8.00;6.25;;;;;25.74;42.51;101642.41;5058334;28;45442;-69
2021/07/01 03:16:20;;;;;;;;;6.50;6.50;;;;;25.72;42.95;101643.59;5075629;28;45433;-69
2021/07/01 03:18:50;;;;;;;;;7.00;7.00;;;;;25.70;42.88;101641.13;5060031;28;46193;-69
2021/07/01 03:21:17;;;;;;;;;7.75;7.50;;;;;25.83;42.65;101664.47;5060008;28;45200;-69
2021/07/01 03:23:44;;;;;;;;;5.50;5.50;;;;;25.61;42.47;101611.06;5066472;28;45307;-69
2021/07/01 03:26:10;;;;;;;;;5.75;5.00;;;;;25.56;42.75;101615.28;5059729;28;45467;-69
2021/07/01 03:28:36;;;;;;;;;6.00;6.00;;;;;25.62;42.63;101620.72;5059648;28;45483;-69
2021/07/01 03:31:05;;;;;;;;;7.00;7.00;;;;;25.89;42.90;101662.91;5059736;28;45283;-69
2021/07/01 03:33:31;;;;;;;;;8.00;7.00;;;;;25.82;42.88;101657.47;5059573;28;45310;-69
2021/07/01 03:35:58;;;;;;;;;8.50;6.75;;;;;25.55;42.77;101613.66;5059823;28;45489;-69
2021/07/01 03:38:23;;;;;;;;;8.00;8.00;;;;;25.79;43.22;101655.19;5059772;28;47349;-69
2021/07/01 03:40:49;;;;;;;;;8.75;6.00;;;;;25.59;42.72;101615.75;5059113;28;45362;-69
2021/07/01 03:43:15;;;;;;;;;6.00;6.00;;;;;25.75;42.85;101648.56;5059609;28;45402;-69
2021/07/01 03:45:40;;;;;;;;;5.25;5.25;;;;;25.51;42.72;101615.84;5059459;28;45386;-69
2021/07/01 03:48:07;;;;;;;;;9.75;7.00;;;;;25.76;42.73;101652.91;5059296;28;46263;-69
2021/07/01 03:50:32;;;;;;;;;6.00;6.00;;;;;25.71;42.38;101650.75;5059596;28;45243;-69
2021/07/01 03:52:58;;;;;;;;;5.50;5.50;;;;;25.48;42.75;101616.22;5059322;28;45275;-69
2021/07/01 03:55:23;;;;;;;;;5.50;5.50;;;;;25.72;42.90;101659.56;5057680;28;45569;-69
2021/07/01 03:57:49;;;;;;;;;6.75;6.00;;;;;25.51;42.79;101631.84;5064530;28;45563;-69
2021/07/01 04:00:15;;;;;;;;;7.50;6.00;;;;;25.50;42.92;101625.69;5059423;28;45173;-69
2021/07/01 04:02:40;;;;;;;;;9.00;7.75;;;;;25.65;43.02;101646.19;5058997;28;45499;-69
2021/07/01 04:05:07;;;;;;;;;6.50;6.00;;;;;25.73;42.68;101654.09;5059185;28;45154;-69
2021/07/01 04:07:32;;;;;;;;;6.50;6.50;;;;;25.65;42.78;101646.19;5059026;28;45398;-69
2021/07/01 04:10:01;;;;;;;;;7.00;7.00;;;;;25.55;42.89;101627.00;5059134;28;45368;-69
2021/07/01 04:12:27;;;;;;;;;5.75;5.75;;;;;25.57;42.58;101640.94;5074829;28;45312;-69
2021/07/01 04:14:52;;;;;;;;;6.25;6.25;;;;;25.49;42.92;101623.22;5079344;28;45144;-69
2021/07/01 04:17:18;;;;;;;;;6.25;6.25;;;;;25.72;42.89;101665.75;5079104;28;46296;-69
2021/07/01 04:19:43;;;;;;;;;6.00;6.00;;;;;25.71;42.60;101655.28;5079533;28;45477;-69
2021/07/01 04:22:09;;;;;;;;;6.00;6.00;;;;;25.77;42.97;101667.88;5082456;28;45401;-69
2021/07/01 04:24:34;;;;;;;;;5.50;5.50;;;;;25.58;43.04;101637.28;5062069;27;45222;-69
2021/07/01 04:27:00;;;;;;;;;7.25;7.25;;;;;25.84;42.78;101679.44;5061137;28;47252;-69
2021/07/01 04:29:25;;;;;;;;;5.25;5.25;;;;;25.54;42.50;101639.47;5060987;28;45195;-69
2021/07/01 04:31:51;;;;;;;;;6.25;6.25;;;;;25.77;42.76;101667.88;5062193;28;45480;-68
2021/07/01 04:34:17;;;;;;;;;6.00;6.00;;;;;25.64;42.78;101644.50;5062364;28;45481;-69
2021/07/01 04:36:43;;;;;;;;;7.00;7.00;;;;;25.52;42.39;101621.03;5063886;28;46374;-68
2021/07/01 04:39:08;;;;;;;;;7.50;7.50;;;;;25.87;42.59;101691.56;5062296;28;45290;-69
2021/07/01 04:41:33;;;;;;;;;4.75;4.75;;;;;25.87;42.86;101683.56;5062049;28;45315;-69
2021/07/01 04:43:59;;;;;;;;;5.75;5.75;;;;;25.78;42.83;101669.53;5060903;28;45499;-69
2021/07/01 04:46:24;;;;;;;;;6.75;6.75;;;;;25.85;42.60;101685.59;5060566;28;47969;-69
2021/07/01 04:48:51;;;;;;;;;7.00;7.00;;;;;25.61;42.87;101655.53;5060985;28;45399;-69
2021/07/01 04:51:16;;;;;;;;;6.25;6.00;;;;;25.86;43.10;101695.25;5062340;28;45235;-69
2021/07/01 04:53:42;;;;;;;;;9.00;7.50;;;;;25.80;42.92;101682.66;5061672;28;45454;-69
2021/07/01 04:56:08;;;;;;;;;7.00;7.00;;;;;25.74;42.57;101668.25;5061964;28;46278;-69
2021/07/01 04:58:34;;;;;;;;;6.00;6.00;;;;;25.59;42.80;101646.91;5066233;28;45306;-70
2021/07/01 05:01:00;;;;;;;;;5.00;5.00;;;;;25.40;42.73;101619.81;5060382;28;45319;-70
2021/07/01 05:03:25;;;;;;;;;7.50;7.00;;;;;25.65;42.87;101662.16;5060135;28;45520;-69
2021/07/01 05:05:50;;;;;;;;;6.00;6.00;;;;;25.51;42.78;101643.34;5061585;28;45481;-69
2021/07/01 05:08:16;;;;;;;;;5.75;5.75;;;;;25.78;42.70;101688.19;5062038;28;45294;-69
2021/07/01 05:10:42;;;;;;;;;10.00;8.00;;;;;25.73;42.58;101678.09;5063054;28;45548;-69
2021/07/01 05:13:08;;;;;;;;;7.00;6.25;;;;;25.66;42.69;101671.00;5080639;27;45332;-69
2021/07/01 05:15:33;;;;;;;;;6.00;6.00;;;;;25.45;42.76;101638.72;5080613;28;47022;-69
2021/07/01 05:18:00;;;;;;;;;5.00;5.00;;;;;25.63;42.78;101672.19;5081778;28;45347;-69
2021/07/01 05:20:25;;;;;;;;;9.75;8.00;;;;;25.83;42.62;101698.28;5080698;28;45485;-69
2021/07/01 05:22:51;;;;;;;;;6.00;5.50;;;;;25.81;42.70;101698.50;5081880;28;45429;-69
2021/07/01 05:25:16;;;;;;;;;7.00;6.25;;;;;25.74;42.78;101685.06;5081825;28;45576;-71
2021/07/01 05:27:42;;;;;;;;;7.00;7.00;;;;;25.74;42.71;101698.38;5082137;27;45250;-72
2021/07/01 05:30:08;;;;;;;;;5.00;5.00;;;;;25.63;42.86;101677.53;5081850;28;45275;-71
2021/07/01 05:32:33;;;;;;;;;8.00;6.25;;;;;25.81;42.68;101714.50;5081213;28;45444;-71
2021/07/01 05:34:58;;;;;;;;;6.75;6.75;;;;;25.54;42.74;101663.44;5097223;27;47344;-71
2021/07/01 05:37:24;;;;;;;;;5.75;5.75;;;;;25.67;42.84;101684.13;5072879;28;45251;-71
2021/07/01 05:39:49;;;;;;;;;6.75;6.00;;;;;25.58;42.69;101664.72;5061456;28;45313;-71
2021/07/01 05:42:15;;;;;;;;;5.00;5.00;;;;;25.31;42.75;101626.25;5060904;28;45280;-74
2021/07/01 05:44:40;;;;;;;;;5.00;5.00;;;;;25.74;42.51;101701.06;5061151;28;45471;-71
2021/07/01 05:47:06;;;;;;;;;7.00;7.00;;;;;25.52;42.98;101655.66;5059963;28;45316;-69
2021/07/01 05:49:31;;;;;;;;;8.00;6.25;;;;;25.64;42.65;101679.16;5060172;27;46073;-73
2021/07/01 05:52:01;;;;;;;;;8.25;7.25;;;;;25.76;42.43;101695.56;5073213;28;45468;-72
2021/07/01 05:54:33;;;;;;;;;6.75;6.75;;;;;25.80;43.03;101696.81;5078567;27;45652;-72
2021/07/01 05:56:59;;;;;;;;;8.75;6.50;;;;;25.76;43.09;101692.88;5075279;27;45552;-72
2021/07/01 05:59:24;;;;;;;;;6.00;6.00;;;;;25.71;43.42;101680.06;5076298;27;45274;-70
2021/07/01 06:01:50;;;;;;;;;8.00;5.75;;;;;25.75;42.95;101685.91;5065350;28;45326;-73
2021/07/01 06:04:17;;;;;;;;;7.25;6.00;;;;;25.63;43.32;101677.53;5066494;28;45439;-72
2021/07/01 06:06:48;;;;;;;;;6.75;6.25;;;;;25.62;43.42;101670.53;5069585;28;45274;-73
2021/07/01 06:09:14;;;;;;;;;6.00;5.25;;;;;25.78;43.06;101698.03;5076881;28;45550;-73
2021/07/01 06:11:40;;;;;;;;;7.50;6.50;;;;;25.52;43.14;101647.66;5070113;28;45437;-71
2021/07/01 06:14:06;;;;;;;;;7.75;7.00;;;;;25.55;43.34;101657.13;5078402;28;45466;-72
2021/07/01 06:16:34;;;;;;;;;9.00;8.00;;;;;25.86;43.43;101703.25;5080274;28;45387;-71
2021/07/01 06:19:02;;;;;;;;;7.00;7.00;;;;;25.70;43.27;101685.59;5080779;28;45197;-70
2021/07/01 06:21:28;;;;;;;;;6.25;6.25;;;;;25.78;43.36;101700.69;5079660;28;45331;-70
2021/07/01 06:23:55;;;;;;;;;7.75;6.00;;;;;25.88;43.31;101724.38;5080367;28;45471;-71
2021/07/01 06:26:27;;;;;;;;;9.25;5.75;;;;;25.42;43.69;101649.78;5081013;28;45387;-70
2021/07/01 06:28:53;;;;;;;;;8.50;5.75;;;;;25.58;43.16;101678.06;5076409;27;45742;-71
2021/07/01 06:31:19;;;;;;;;;7.00;7.00;;;;;25.88;43.39;101719.88;5059088;28;45972;-70
2021/07/01 06:33:45;;;;;;;;;9.25;8.00;;;;;25.81;42.92;101711.81;5059828;28;46594;-70
2021/07/01 06:36:12;;;;;;;;;6.25;6.25;;;;;25.73;43.58;101691.41;5060423;28;45288;-70
2021/07/01 06:38:45;;;;;;;;;7.00;7.00;;;;;25.54;43.64;101667.94;5060213;27;45395;-70
2021/07/01 06:41:13;;;;;;;;;6.75;6.75;;;;;25.71;43.24;101695.25;5059286;28;45478;-70
2021/07/01 06:43:41;;;;;;;;;7.25;7.25;;;;;25.73;43.17;101703.88;5075029;28;48524;-70
2021/07/01 06:46:08;;;;;;;;;9.50;6.75;;;;;25.52;43.56;101673.47;5059932;28;45222;-70
2021/07/01 06:48:33;;;;;;;;;7.25;7.25;;;;;25.29;43.46;101629.91;5060546;28;45291;-70
2021/07/01 06:51:00;;;;;;;;;7.25;7.00;;;;;25.61;43.33;101682.19;5058795;28;45713;-70
2021/07/01 06:53:27;;;;;;;;;8.00;8.00;;;;;25.80;43.49;101707.50;5059067;28;47804;-70
2021/07/01 06:55:53;;;;;;;;;8.50;7.25;;;;;25.51;43.42;101674.47;5060088;27;45232;-70
2021/07/01 06:58:19;;;;;;;;;10.00;9.00;;;;;25.70;43.48;101705.09;5064230;28;45300;-70
2021/07/01 07:00:45;;;;;;;;;8.25;6.50;;;;;25.83;43.76;101733.78;5059574;28;45178;-70
2021/07/01 07:03:17;;;;;;;;;8.50;7.25;;;;;25.73;43.48;101715.41;5059000;28;45452;-70
2021/07/01 07:05:51;;;;;;;;;8.00;6.75;;;;;25.52;43.43;101666.31;5059619;28;45299;-70
2021/07/01 07:08:17;;;;;;;;;10.75;9.25;;;;;25.55;43.49;101680.28;5059840;28;45451;-70
2021/07/01 07:10:44;;;;;;;;;9.50;7.50;;;;;25.81;43.41;101726.97;5062102;28;45491;-70
2021/07/01 07:13:11;;;;;;;;;7.25;6.75;;;;;25.61;43.37;101693.69;5069688;28;46521;-70
2021/07/01 07:15:37;;;;;;;;;10.25;9.00;;;;;25.70;43.42;101707.75;5058204;28;45273;-70
2021/07/01 07:18:15;;;;;;;;;8.00;7.25;;;;;25.89;43.32;101734.06;5059740;28;45455;-71
2021/07/01 07:20:43;;;;;;;;;9.25;8.00;;;;;25.72;43.46;101713.72;5058279;28;45461;-70
2021/07/01 07:23:09;;;;;;;;;9.25;8.00;;;;;25.72;43.18;101713.72;5059611;28;46294;-70
2021/07/01 07:25:39;;;;;;;;;8.25;8.25;;;;;25.59;43.39;101687.72;5059601;28;45265;-70
2021/07/01 07:28:07;;;;;;;;;6.00;6.00;;;;;25.78;43.30;101727.34;5058340;28;45285;-70
2021/07/01 07:30:34;;;;;;;;;7.50;7.50;;;;;25.49;43.10;101673.84;5059613;28;45255;-70
2021/07/01 07:33:05;;;;;;;;;7.50;7.00;;;;;25.84;43.27;101732.75;5059384;28;46174;-70
2021/07/01 07:35:32;;;;;;;;;6.00;6.00;;;;;25.81;43.03;101721.66;5059620;28;45306;-70
2021/07/01 07:37:59;;;;;;;;;7.50;6.25;;;;;25.58;43.30;101683.38;5059566;28;45461;-70
2021/07/01 07:40:25;;;;;;;;;7.50;7.50;;;;;25.61;43.29;101691.00;5059587;28;45512;-70
2021/07/01 07:42:51;;;;;;;;;9.00;9.00;;;;;25.68;43.51;101700.94;5057991;28;48003;-70
2021/07/01 07:45:17;;;;;;;;;7.50;7.00;;;;;25.92;43.19;101742.50;5071883;28;45429;-70
2021/07/01 07:47:42;;;;;;;;;8.00;8.00;;;;;25.57;43.16;101689.75;5079662;28;45448;-70
2021/07/01 07:50:10;;;;;;;;;8.75;8.00;;;;;25.91;43.50;101745.34;5079607;28;45334;-69
2021/07/01 07:52:45;;;;;;;;;8.75;7.25;;;;;25.68;43.19;101712.44;5077009;28;46396;-70
2021/07/01 07:55:14;;;;;;;;;8.00;8.00;;;;;25.61;43.30;101687.50;5075074;28;45452;-70
2021/07/01 07:57:40;;;;;;;;;8.75;8.75;;;;;25.71;43.27;101705.91;5065673;28;45334;-70
2021/07/01 08:00:07;;;;;;;;;7.00;7.00;;;;;25.79;43.41;101718.34;5061566;28;45639;-70
2021/07/01 08:02:50;;;;;;;;;8.00;7.75;;;;;25.65;43.21;101699.47;5061775;28;46263;-70
2021/07/01 08:05:21;;;;;;;;;7.00;7.00;;;;;25.70;43.40;101712.25;5061481;28;45371;-70
2021/07/01 08:07:48;;;;;;;;;8.50;7.25;;;;;25.92;43.18;101742.50;5061242;28;45300;-70
2021/07/01 08:10:17;;;;;;;;;8.00;8.00;;;;;25.71;43.44;101716.56;5061395;28;45496;-70
2021/07/01 08:12:48;;;;;;;;;6.00;6.00;;;;;25.64;43.33;101695.16;5080171;28;48247;-70
2021/07/01 08:15:18;;;;;;;;;7.00;7.00;;;;;25.83;43.05;101728.44;5082937;28;45223;-71
2021/07/01 08:17:45;;;;;;;;;10.25;8.50;;;;;25.91;43.04;101740.84;5082960;28;45311;-70
2021/07/01 08:20:13;;;;;;;;;6.25;6.25;;;;;25.85;43.33;101721.09;5072387;28;45355;-70
2021/07/01 08:22:41;;;;;;;;;7.50;7.00;;;;;25.65;43.41;101696.81;5062129;28;47205;-70
2021/07/01 08:25:07;;;;;;;;;9.75;8.75;;;;;25.68;43.51;101693.78;5062422;28;45343;-70
2021/07/01 08:27:33;;;;;;;;;8.75;8.75;;;;;25.65;43.34;101686.16;5061151;27;45444;-70
2021/07/01 08:30:01;;;;;;;;;7.00;7.00;;;;;25.83;43.37;101715.13;5060847;28;45468;-71
2021/07/01 08:32:28;;;;;;;;;8.50;7.50;;;;;25.68;43.17;101687.63;5062373;28;45569;-70
2021/07/01 08:34:53;;;;;;;;;9.25;8.00;;;;;25.68;43.12;101684.97;5060898;28;45390;-71
2021/07/01 08:37:21;;;;;;;;;8.25;7.00;;;;;25.61;43.44;101674.19;5062617;28;45319;-70
2021/07/01 08:39:48;;;;;;;;;9.00;8.00;;;;;25.56;43.27;101671.25;5060981;28;45229;-71
2021/07/01 08:42:15;;;;;;;;;9.50;8.50;;;;;25.69;43.11;101682.09;5060875;28;48967;-71
2021/07/01 08:44:45;;;;;;;;;8.50;8.25;;;;;25.98;43.59;101742.75;5062020;28;45342;-70
2021/07/01 08:47:18;;;;;;;;;9.25;9.25;;;;;25.71;43.41;101696.06;5062140;28;45244;-70
2021/07/01 08:49:47;;;;;;;;;8.50;8.50;;;;;25.98;43.22;101732.94;5077636;28;45287;-70
2021/07/01 08:52:15;;;;;;;;;9.50;9.25;;;;;25.97;43.25;101731.25;5061972;28;45655;-71
2021/07/01 08:54:43;;;;;;;;;10.50;10.50;;;;;25.74;43.37;101701.06;5060204;28;45443;-70
2021/07/01 08:57:15;;;;;;;;;8.50;8.50;;;;;25.86;43.15;101721.91;5065083;28;45324;-71
2021/07/01 08:59:52;;;;;;;;;8.25;7.75;;;;;25.99;43.04;101739.09;5062477;28;45587;-70
2021/07/01 09:02:23;;;;;;;;;7.75;7.75;;;;;25.91;43.32;101730.19;5060370;28;48278;-70
2021/07/01 09:04:56;;;;;;;;;9.00;9.00;;;;;25.88;42.86;101724.38;5068121;28;45428;-70
2021/07/01 09:07:27;;;;;;;;;8.75;7.75;;;;;25.71;43.25;101693.38;5097321;27;45295;-70
2021/07/01 09:09:59;;;;;;;;;7.00;7.00;;;;;25.65;43.15;101683.47;5082404;28;45154;-71
2021/07/01 09:12:26;;;;;;;;;7.50;7.50;;;;;25.70;43.12;101689.09;5080653;28;47686;-71
2021/07/01 09:14:58;;;;;;;;;9.50;7.50;;;;;25.87;43.08;101720.88;5097334;27;46250;-70
2021/07/01 09:17:30;;;;;;;;;10.25;8.00;;;;;25.95;43.22;101725.28;5081824;28;45316;-70
2021/07/01 09:19:57;;;;;;;;;9.25;8.25;;;;;25.69;43.00;101684.75;5097606;27;45498;-70
2021/07/01 09:22:24;;;;;;;;;10.75;10.75;;;;;25.80;42.92;101704.81;5080249;28;46721;-70
2021/07/01 09:24:51;;;;;;;;;8.00;7.25;;;;;25.96;43.23;101729.63;5081583;28;45461;-70
2021/07/01 09:27:17;;;;;;;;;11.00;9.50;;;;;25.62;43.27;101679.34;5080717;28;45456;-71
2021/07/01 09:29:45;;;;;;;;;11.50;9.00;;;;;25.65;42.94;101675.50;5080348;28;46007;-70
2021/07/01 09:32:13;;;;;;;;;11.50;8.00;;;;;25.67;43.21;101675.28;5097092;27;47316;-70
2021/07/01 09:34:41;;;;;;;;;8.00;8.00;;;;;25.85;43.02;101705.09;5081591;28;45362;-71
2021/07/01 09:37:07;;;;;;;;;8.75;8.75;;;;;25.99;43.45;101723.09;5077032;28;45331;-71
2021/07/01 09:39:33;;;;;;;;;10.00;8.25;;;;;25.70;43.42;101682.94;5061047;28;45462;-71
2021/07/01 09:42:01;;;;;;;;;8.25;8.25;;;;;25.70;43.38;101683.75;5059878;28;46389;-71
2021/07/01 09:44:32;;;;;;;;;11.25;8.50;;;;;25.74;43.14;101684.22;5059575;28;45541;-71
2021/07/01 09:46:59;;;;;;;;;13.00;10.50;;;;;25.97;43.04;101717.94;5076606;28;45274;-71
2021/07/01 09:49:38;;;;;;;;;6.25;6.25;;;;;25.65;43.01;101667.50;5060354;28;45625;-71
2021/07/01 09:52:12;;;;;;;;;7.75;7.75;;;;;25.95;43.45;101712.78;5061212;28;45496;-71
2021/07/01 09:54:40;;;;;;;;;10.25;9.75;;;;;26.01;43.12;101713.91;5058884;28;45546;-71
2021/07/01 09:57:36;;;;;;;;;8.25;8.00;;;;;25.68;43.51;101660.97;5062426;28;45440;-71
2021/07/01 10:00:10;;;;;;;;;8.75;8.00;;;;;25.76;42.70;101681.41;5072264;27;45373;-71
2021/07/01 10:02:36;;;;;;;;;8.50;8.50;;;;;25.91;43.18;101692.03;5079550;28;46687;-71
2021/07/01 10:05:05;;;;;;;;;8.25;8.25;;;;;26.01;43.09;101708.56;5079677;28;45419;-71
2021/07/01 10:07:31;;;;;;;;;8.50;8.50;;;;;26.01;43.01;101703.22;5080935;28;45282;-71
2021/07/01 10:10:09;;;;;;;;;7.75;7.75;;;;;25.85;42.99;101677.59;5081252;28;45261;-71
2021/07/01 10:12:51;;;;;;;;;8.00;8.00;;;;;26.04;43.03;101700.19;5075924;28;46761;-71
2021/07/01 10:15:46;;;;;;;;;10.25;10.25;;;;;25.85;43.02;101662.44;5058682;28;45421;-71
2021/07/01 10:18:19;;;;;;;;;7.00;6.00;;;;;25.61;42.89;101627.06;5057089;28;45315;-71
2021/07/01 10:20:47;;;;;;;;;9.00;8.00;;;;;25.88;42.81;101674.56;5058304;28;45558;-71
2021/07/01 10:23:20;;;;;;;;;10.25;10.25;;;;;26.13;42.92;101708.91;5058419;28;45437;-71
2021/07/01 10:25:47;;;;;;;;;8.25;8.25;;;;;25.85;43.07;101650.94;5067494;28;45201;-71
2021/07/01 10:28:17;;;;;;;;;9.00;8.50;;;;;25.90;42.92;101661.03;5096651;27;45493;-71
2021/07/01 10:31:01;;;;;;;;;10.00;10.00;;;;;25.72;42.75;101639.09;5096637;27;45448;-71
2021/07/01 10:33:33;;;;;;;;;8.00;8.00;;;;;25.89;42.91;101657.56;5080686;28;46269;-71
2021/07/01 10:36:01;;;;;;;;;10.75;9.75;;;;;25.82;42.77;101653.97;5096553;27;45468;-71
2021/07/01 10:38:27;;;;;;;;;8.75;8.75;;;;;25.94;42.69;101671.13;5077248;27;45432;-71
2021/07/01 10:40:55;;;;;;;;;10.00;10.00;;;;;25.90;42.98;101656.53;5059147;28;45248;-71
2021/07/01 10:43:38;;;;;;;;;9.25;9.25;;;;;25.84;42.52;101641.31;5075606;28;47479;-71
2021/07/01 10:46:03;;;;;;;;;11.00;11.00;;;;;26.16;42.99;101695.19;5059544;27;45825;-71
2021/07/01 10:48:29;;;;;;;;;9.75;8.75;;;;;26.14;42.72;101696.41;5060313;28;45312;-71
2021/07/01 10:51:04;;;;;;;;;8.75;7.00;;;;;25.82;42.65;101651.31;5075419;28;45253;-71
2021/07/01 10:53:41;;;;;;;;;8.75;7.00;;;;;25.76;42.77;101642.25;5059999;28;46582;-71
2021/07/01 10:56:24;;;;;;;;;11.50;8.75;;;;;26.00;42.90;101679.41;5059749;28;45209;-71
2021/07/01 10:58:55;;;;;;;;;9.25;9.25;;;;;25.86;42.82;101663.28;5063743;28;45269;-71
2021/07/01 11:01:32;;;;;;;;;10.00;8.50;;;;;25.93;42.60;101674.00;5058543;28;45734;-71
2021/07/01 11:04:11;;;;;;;;;11.00;10.00;;;;;25.78;43.03;101644.72;5066411;28;47099;-71
2021/07/01 11:06:40;;;;;;;;;11.25;10.00;;;;;25.83;42.76;101664.47;5060003;28;45493;-71
2021/07/01 11:09:07;;;;;;;;;13.00;9.75;;;;;26.13;43.08;101703.56;5058517;28;45287;-71
2021/07/01 11:11:39;;;;;;;;;10.25;10.25;;;;;26.13;42.99;101706.22;5069304;28;45177;-71
2021/07/01 11:14:10;;;;;;;;;10.25;9.75;;;;;26.00;42.79;101684.75;5068436;27;45428;-71
2021/07/01 11:16:39;;;;;;;;;10.00;8.75;;;;;26.03;43.32;101693.19;5074745;28;45204;-71
2021/07/01 11:19:07;;;;;;;;;12.25;9.75;;;;;25.77;42.73;101651.03;5058556;28;45404;-71
2021/07/01 11:21:33;;;;;;;;;8.75;7.00;;;;;25.76;42.76;101650.25;5058621;28;45360;-71
2021/07/01 11:24:12;;;;;;;;;11.00;11.00;;;;;25.99;42.95;101688.44;5059516;28;46616;-71
2021/07/01 11:26:38;;;;;;;;;8.00;7.50;;;;;25.73;42.96;101645.25;5059774;28;45490;-71